TimeMST,TemperatureF,Dew PointF,Humidity,Sea Level PressureIn,VisibilityMPH,Wind Direction,Wind SpeedMPH,Gust SpeedMPH,PrecipitationIn,Events,Conditions,WindDirDegrees,DateUTC
12:53 AM,61.0,37.0,41,29.89,10.0,Calm,Calm,-,N/A,,Clear,0,2012-11-03 07:53:00
1:53 AM,61.0,36.0,39,29.91,10.0,Calm,Calm,-,N/A,,Clear,0,2012-11-03 08:53:00
2:53 AM,62.1,36.0,38,29.91,10.0,Calm,Calm,-,N/A,,Clear,0,2012-11-03 09:53:00
3:53 AM,61.0,36.0,39,29.91,10.0,Calm,Calm,-,N/A,,Clear,0,2012-11-03 10:53:00
4:53 AM,59.0,36.0,42,29.92,10.0,Calm,Calm,-,N/A,,Clear,0,2012-11-03 11:53:00
5:53 AM,57.9,36.0,44,29.95,10.0,Calm,Calm,-,N/A,,Clear,0,2012-11-03 12:53:00
6:53 AM,59.0,36.0,42,29.97,10.0,Calm,Calm,-,N/A,,Clear,0,2012-11-03 13:53:00
7:53 AM,61.0,37.9,42,29.99,10.0,Calm,Calm,-,N/A,,Clear,0,2012-11-03 14:53:00
8:53 AM,66.9,37.9,34,30.00,10.0,Calm,Calm,-,N/A,,Clear,0,2012-11-03 15:53:00
9:53 AM,71.1,36.0,28,30.01,10.0,Calm,Calm,-,N/A,,Clear,0,2012-11-03 16:53:00
10:53 AM,75.0,37.0,25,30.00,10.0,South,3.5,-,N/A,,Clear,180,2012-11-03 17:53:00
11:53 AM,79.0,34.0,20,29.99,10.0,SSW,8.1,-,N/A,,Clear,210,2012-11-03 18:53:00
12:53 PM,80.1,34.0,19,29.96,10.0,Calm,Calm,-,N/A,,Clear,0,2012-11-03 19:53:00
1:53 PM,82.9,34.0,17,29.95,10.0,Calm,Calm,-,N/A,,Clear,0,2012-11-03 20:53:00
2:53 PM,84.0,34.0,17,29.94,10.0,WSW,8.1,-,N/A,,Clear,250,2012-11-03 21:53:00
3:53 PM,84.0,34.0,17,29.93,10.0,Variable,3.5,-,N/A,,Clear,0,2012-11-03 22:53:00
4:13 PM,84.2,33.8,16,29.98,10.0,West,6.9,-,N/A,,Partly Cloudy,260,2012-11-03 23:13:00
4:53 PM,82.9,34.0,17,29.93,10.0,WSW,3.5,-,N/A,,Clear,250,2012-11-03 23:53:00
5:53 PM,80.1,36.0,20,29.94,10.0,Calm,Calm,-,N/A,,Clear,0,2012-11-04 00:53:00
6:53 PM,77.0,37.0,24,29.95,10.0,Calm,Calm,-,N/A,,Clear,0,2012-11-04 01:53:00
7:53 PM,73.0,37.0,27,29.96,10.0,North,3.5,-,N/A,,Clear,10,2012-11-04 02:53:00
9:53 PM,70.0,37.0,30,29.98,10.0,Calm,Calm,-,N/A,,Clear,0,2012-11-04 04:53:00
10:53 PM,66.9,37.9,34,29.99,10.0,Calm,Calm,-,N/A,,Clear,0,2012-11-04 05:53:00
11:53 PM,64.9,37.9,37,29.99,10.0,Calm,Calm,-,N/A,,Clear,0,2012-11-04 06:53:00